createdAt,value
2023-04-26T04:18:44.862Z,10.73
2023-04-26T04:21:59.202Z,10.73
2023-04-26T04:25:14.253Z,9.98
2023-04-26T04:28:28.524Z,10.17
2023-04-26T04:31:42.993Z,10.49
2023-04-26T04:34:58.987Z,10.64
2023-04-26T04:38:13.432Z,10.53
2023-04-26T04:41:28.127Z,10.59
2023-04-26T04:44:43.264Z,10.43
2023-04-26T04:47:57.519Z,11.11
2023-04-26T04:51:13.076Z,10.49
2023-04-26T04:54:27.421Z,10.95
2023-04-26T04:57:43.900Z,10.81
2023-04-26T05:01:01.580Z,10.66
2023-04-26T05:04:21.790Z,10.93
2023-04-26T05:07:38.118Z,11.11
2023-04-26T05:10:58.355Z,11.16
2023-04-26T05:14:15.893Z,11.04
2023-04-26T05:17:35.079Z,10.99
2023-04-26T05:20:54.314Z,11.18
2023-04-26T05:24:11.063Z,10.77
2023-04-26T05:27:33.254Z,10.86
2023-04-26T05:30:56.250Z,11.21
2023-04-26T05:34:32.964Z,10.89
2023-04-26T05:37:47.046Z,11.28
2023-04-26T05:41:32.854Z,10.78
2023-04-26T05:44:53.115Z,11.02
2023-04-26T05:48:12.458Z,11.15
2023-04-26T05:51:50.815Z,11.22
2023-04-26T05:55:12.047Z,11.38
2023-04-26T05:58:45.231Z,11.31
2023-04-26T06:02:33.349Z,11.79
2023-04-26T06:06:11.711Z,11.84
2023-04-26T06:09:27.881Z,11.42
2023-04-26T06:12:50.408Z,11.31
2023-04-26T06:16:09.922Z,11.35
2023-04-26T06:19:28.758Z,11.59
2023-04-26T06:22:48.641Z,11.71
2023-04-26T06:26:15.292Z,11.82
2023-04-26T06:29:54.527Z,11.86
2023-04-26T06:33:10.848Z,12.59
2023-04-26T06:37:04.084Z,13.38
2023-04-26T06:40:21.748Z,13.68
2023-04-26T06:44:08.301Z,13.12
2023-04-26T06:47:23.978Z,12.63
2023-04-26T06:50:44.197Z,12.51
2023-04-26T06:54:01.564Z,12.62
2023-04-26T06:57:25.821Z,12.59
2023-04-26T07:00:47.370Z,12.87
2023-04-26T07:04:22.904Z,12.87
2023-04-26T07:07:45.335Z,12.85
2023-04-26T07:11:19.545Z,12.83
2023-04-26T07:14:35.993Z,12.84
2023-04-26T07:17:54.110Z,13.43
2023-04-26T07:21:34.230Z,13.06
2023-04-26T07:25:33.415Z,12.85
2023-04-26T07:29:07.938Z,12.87
2023-04-26T07:32:29.867Z,12.94
2023-04-26T07:36:17.415Z,13.13
2023-04-26T07:39:57.871Z,12.80
2023-04-26T07:43:22.468Z,13.30
2023-04-26T07:47:15.809Z,13.59
2023-04-26T07:50:55.460Z,13.14
2023-04-26T07:54:25.663Z,14.10
2023-04-26T07:57:57.006Z,12.61
2023-04-26T08:01:56.938Z,13.27
2023-04-26T08:05:42.971Z,13.64
2023-04-26T08:09:12.831Z,13.84
2023-04-26T08:12:28.105Z,13.97
2023-04-26T08:15:50.576Z,13.13
2023-04-26T08:19:31.484Z,13.57
2023-04-26T08:22:47.199Z,13.44
2023-04-26T08:26:27.964Z,13.23
2023-04-26T08:29:59.575Z,13.64
2023-04-26T08:33:32.287Z,13.78
2023-04-26T08:37:35.729Z,13.56
2023-04-26T08:41:25.095Z,13.86
2023-04-26T08:45:12.065Z,13.57
2023-04-26T08:49:00.184Z,13.81
2023-04-26T08:52:27.757Z,13.90
2023-04-26T08:56:10.772Z,14.23
2023-04-26T08:59:36.735Z,13.76
2023-04-26T09:02:53.861Z,13.63
2023-04-26T09:10:21.509Z,13.36
2023-04-26T09:13:49.322Z,13.98
2023-04-26T09:17:10.617Z,13.90
2023-04-26T09:20:54.599Z,14.15
2023-04-26T09:24:29.942Z,14.28
2023-04-26T09:27:57.966Z,14.07
2023-04-26T09:32:04.769Z,13.79
2023-04-26T09:35:30.309Z,14.11
2023-04-26T09:38:48.229Z,14.49
2023-04-26T09:42:05.572Z,14.32
2023-04-26T09:46:04.982Z,14.46
2023-04-26T09:49:37.541Z,14.78
2023-04-26T09:53:19.951Z,15.21
2023-04-26T09:56:45.444Z,14.80
2023-04-26T10:00:26.475Z,14.89
2023-04-26T10:04:02.699Z,15.02
2023-04-26T10:07:19.600Z,14.83
2023-04-26T10:10:37.521Z,14.99
2023-04-26T10:14:14.931Z,14.98
2023-04-26T10:17:44.499Z,14.88
2023-04-26T10:21:18.999Z,14.74
2023-04-26T10:24:48.692Z,15.27
2023-04-26T10:28:20.284Z,15.25
2023-04-26T10:32:17.894Z,15.54
2023-04-26T10:35:46.127Z,16.14
2023-04-26T10:39:29.446Z,16.68
2023-04-26T10:43:02.229Z,16.80
2023-04-26T10:50:19.340Z,17.24
2023-04-26T10:53:55.862Z,16.80
2023-04-26T11:01:28.913Z,15.65
2023-04-26T11:08:49.002Z,16.46
2023-04-26T11:12:15.572Z,16.07
2023-04-26T11:16:13.004Z,16.20
2023-04-26T11:23:22.226Z,15.98
2023-04-26T11:26:38.778Z,16.24
2023-04-26T11:30:05.673Z,15.78
2023-04-26T11:33:50.636Z,15.95
2023-04-26T11:37:12.629Z,15.77
2023-04-26T11:40:34.743Z,15.89
2023-04-26T11:43:58.771Z,16.13
2023-04-26T11:47:31.965Z,16.12
2023-04-26T11:51:15.176Z,15.40
2023-04-26T11:54:46.463Z,15.68
2023-04-26T11:58:06.573Z,15.34
2023-04-26T12:01:36.040Z,15.93
2023-04-26T12:04:54.996Z,16.38
2023-04-26T12:08:44.694Z,16.56
2023-04-26T12:12:20.217Z,16.24
2023-04-26T12:15:48.439Z,16.79
2023-04-26T12:19:09.611Z,16.08
2023-04-26T12:23:12.632Z,15.67
2023-04-26T12:30:19.539Z,15.86
2023-04-26T12:33:59.821Z,15.49
2023-04-26T12:41:48.521Z,16.05
2023-04-26T12:45:25.407Z,16.08
2023-04-26T12:49:18.681Z,16.41
2023-04-26T12:52:33.983Z,16.85
2023-04-26T12:56:28.972Z,16.90
2023-04-26T12:59:44.559Z,16.30
2023-04-26T13:03:19.407Z,16.62
2023-04-26T13:06:46.498Z,16.62
2023-04-26T13:10:01.220Z,16.67
2023-04-26T13:13:15.608Z,17.05
2023-04-26T13:16:31.121Z,16.69
2023-04-26T13:19:51.415Z,16.85
2023-04-26T13:26:40.128Z,16.42
2023-04-26T13:30:21.760Z,16.08
2023-04-26T13:33:55.850Z,16.46
2023-04-26T13:37:34.366Z,15.90
2023-04-26T13:40:51.659Z,15.45
2023-04-26T13:44:07.765Z,15.08
2023-04-26T13:47:23.192Z,15.55
2023-04-26T13:50:40.110Z,15.16
2023-04-26T13:53:55.982Z,14.73
2023-04-26T13:57:10.239Z,14.65
2023-04-26T14:00:27.229Z,14.69
2023-04-26T14:03:41.879Z,15.31
2023-04-26T14:06:56.453Z,15.20
2023-04-26T14:10:16.208Z,15.35
2023-04-26T14:13:30.663Z,14.59
2023-04-26T14:16:45.281Z,15.15
2023-04-26T14:19:59.515Z,14.98
2023-04-26T14:23:13.625Z,14.89
2023-04-26T14:26:29.450Z,14.95
2023-04-26T14:29:43.828Z,14.61
2023-04-26T14:32:58.121Z,14.97
2023-04-26T14:36:13.024Z,14.42
2023-04-26T14:39:27.341Z,14.73
2023-04-26T14:42:46.223Z,15.02
2023-04-26T14:46:00.566Z,14.80
2023-04-26T14:49:14.803Z,15.31
2023-04-26T14:52:29.376Z,15.11
2023-04-26T14:55:43.589Z,15.68
2023-04-26T14:58:59.140Z,15.69
2023-04-26T15:02:13.528Z,15.43
2023-04-26T15:05:28.040Z,15.82
2023-04-26T15:08:42.214Z,15.73
2023-04-26T15:11:56.361Z,14.69
2023-04-26T15:15:13.016Z,14.36
2023-04-26T15:18:28.791Z,14.69
2023-04-26T15:21:43.000Z,14.93
2023-04-26T15:24:57.222Z,15.40
2023-04-26T15:28:11.748Z,15.41
2023-04-26T15:31:27.370Z,15.35
2023-04-26T15:34:43.617Z,14.95
2023-04-26T15:37:57.791Z,14.71
2023-04-26T15:41:11.970Z,14.80
2023-04-26T15:44:26.090Z,14.58
2023-04-26T15:47:41.734Z,14.17
2023-04-26T15:50:57.153Z,14.06
2023-04-26T15:54:11.346Z,13.95
2023-04-26T15:57:25.477Z,13.87
2023-04-26T16:00:39.822Z,14.13
2023-04-26T16:03:55.627Z,14.13
2023-04-26T16:07:10.160Z,14.10
2023-04-26T16:10:24.461Z,13.97
